sensor_id;sensor_type;location;lat;lon;timestamp;P1;durP1;ratioP1;P2;durP2;ratioP2
29254;SDS011;16277;48.890;2.306;2023-02-15T04:38:10;88.17;;;57.67;;
29254;SDS011;16277;48.890;2.306;2023-02-15T04:53:15;112.13;;;59.47;;
29254;SDS011;16277;48.890;2.306;2023-02-15T05:08:21;95.73;;;59.43;;
29254;SDS011;16277;48.890;2.306;2023-02-15T05:23:25;96.77;;;58.73;;
29254;SDS011;16277;48.890;2.306;2023-02-15T05:38:30;99.50;;;56.97;;
29254;SDS011;16277;48.890;2.306;2023-02-15T05:53:35;88.23;;;58.47;;
29254;SDS011;16277;48.890;2.306;2023-02-15T06:08:41;83.17;;;54.43;;
29254;SDS011;16277;48.890;2.306;2023-02-15T06:23:45;83.93;;;54.80;;
29254;SDS011;16277;48.890;2.306;2023-02-15T06:38:50;78.43;;;53.23;;
29254;SDS011;16277;48.890;2.306;2023-02-15T06:53:54;87.37;;;56.73;;
29254;SDS011;16277;48.890;2.306;2023-02-15T07:08:59;83.23;;;56.03;;
29254;SDS011;16277;48.890;2.306;2023-02-15T07:24:04;84.17;;;56.03;;
29254;SDS011;16277;48.890;2.306;2023-02-15T07:39:09;78.90;;;54.43;;
29254;SDS011;16277;48.890;2.306;2023-02-15T07:54:13;81.23;;;54.33;;
29254;SDS011;16277;48.890;2.306;2023-02-15T08:09:18;98.37;;;57.80;;
29254;SDS011;16277;48.890;2.306;2023-02-15T08:24:23;103.13;;;62.37;;
29254;SDS011;16277;48.890;2.306;2023-02-15T08:39:29;99.27;;;60.57;;
29254;SDS011;16277;48.890;2.306;2023-02-15T08:54:34;99.97;;;61.63;;
29254;SDS011;16277;48.890;2.306;2023-02-15T09:09:38;87.97;;;59.90;;
29254;SDS011;16277;48.890;2.306;2023-02-15T09:24:42;99.87;;;61.63;;
29254;SDS011;16277;48.890;2.306;2023-02-15T09:39:47;95.10;;;62.17;;
29254;SDS011;16277;48.890;2.306;2023-02-15T09:54:55;120.57;;;66.00;;
29254;SDS011;16277;48.890;2.306;2023-02-15T10:10:10;117.37;;;67.13;;
29254;SDS011;16277;48.890;2.306;2023-02-15T10:25:27;120.23;;;64.90;;
29254;SDS011;16277;48.890;2.306;2023-02-15T10:40:40;111.63;;;66.23;;
29254;SDS011;16277;48.890;2.306;2023-02-15T10:55:52;94.77;;;64.63;;
29254;SDS011;16277;48.890;2.306;2023-02-15T11:11:01;103.47;;;65.50;;
29254;SDS011;16277;48.890;2.306;2023-02-15T11:26:12;93.80;;;59.17;;
29254;SDS011;16277;48.890;2.306;2023-02-15T11:41:19;92.73;;;60.70;;
29254;SDS011;16277;48.890;2.306;2023-02-15T11:56:30;96.10;;;64.97;;
29254;SDS011;16277;48.890;2.306;2023-02-15T12:11:38;104.60;;;64.13;;
29254;SDS011;16277;48.890;2.306;2023-02-15T12:26:44;96.87;;;63.33;;
29254;SDS011;16277;48.890;2.306;2023-02-15T12:42:03;104.10;;;63.07;;
29254;SDS011;16277;48.890;2.306;2023-02-15T12:57:20;98.13;;;61.93;;
29254;SDS011;16277;48.890;2.306;2023-02-15T13:12:27;93.57;;;57.90;;
29254;SDS011;16277;48.890;2.306;2023-02-15T13:27:35;82.17;;;54.97;;
29254;SDS011;16277;48.890;2.306;2023-02-15T13:42:44;81.93;;;54.37;;
29254;SDS011;16277;48.890;2.306;2023-02-15T13:58:00;79.93;;;50.90;;
29254;SDS011;16277;48.890;2.306;2023-02-15T14:28:49;72.30;;;50.37;;
29254;SDS011;16277;48.890;2.306;2023-02-15T14:44:01;72.40;;;49.23;;
29254;SDS011;16277;48.890;2.306;2023-02-15T14:59:16;74.30;;;46.63;;
29254;SDS011;16277;48.890;2.306;2023-02-15T15:14:39;61.50;;;44.80;;
29254;SDS011;16277;48.890;2.306;2023-02-15T15:29:45;63.93;;;42.50;;
29254;SDS011;16277;48.890;2.306;2023-02-15T15:44:58;68.00;;;42.63;;
29254;SDS011;16277;48.890;2.306;2023-02-15T16:00:31;55.73;;;41.17;;
29254;SDS011;16277;48.890;2.306;2023-02-15T16:15:44;48.30;;;41.27;;
29254;SDS011;16277;48.890;2.306;2023-02-15T16:31:03;55.23;;;40.17;;
29254;SDS011;16277;48.890;2.306;2023-02-15T16:46:11;57.73;;;37.20;;
29254;SDS011;16277;48.890;2.306;2023-02-15T17:01:23;48.60;;;36.50;;
29254;SDS011;16277;48.890;2.306;2023-02-15T17:16:31;47.27;;;35.63;;
29254;SDS011;16277;48.890;2.306;2023-02-15T17:31:37;39.87;;;33.50;;
29254;SDS011;16277;48.890;2.306;2023-02-15T17:46:42;47.77;;;33.97;;
29254;SDS011;16277;48.890;2.306;2023-02-15T18:01:47;59.57;;;38.47;;
29254;SDS011;16277;48.890;2.306;2023-02-15T18:17:10;37.93;;;32.70;;
29254;SDS011;16277;48.890;2.306;2023-02-15T18:32:17;48.97;;;33.43;;
29254;SDS011;16277;48.890;2.306;2023-02-15T18:47:25;34.47;;;28.93;;
29254;SDS011;16277;48.890;2.306;2023-02-15T19:02:30;36.10;;;26.73;;
29254;SDS011;16277;48.890;2.306;2023-02-15T19:17:35;34.20;;;21.17;;
29254;SDS011;16277;48.890;2.306;2023-02-15T19:32:40;33.40;;;24.40;;
29254;SDS011;16277;48.890;2.306;2023-02-15T19:47:44;18.20;;;16.50;;
29254;SDS011;16277;48.890;2.306;2023-02-15T20:02:50;97.07;;;52.73;;
29254;SDS011;16277;48.890;2.306;2023-02-15T20:17:55;17.33;;;15.57;;
29254;SDS011;16277;48.890;2.306;2023-02-15T20:33:01;16.87;;;15.37;;
29254;SDS011;16277;48.890;2.306;2023-02-15T20:48:07;23.63;;;15.03;;
29254;SDS011;16277;48.890;2.306;2023-02-15T21:03:12;17.83;;;15.57;;
